CDT,Max TemperatureF,Mean TemperatureF,Min TemperatureF,Max Dew PointF,MeanDew PointF,Min DewpointF,Max Humidity, Mean Humidity, Min Humidity, Max Sea Level PressureIn, Mean Sea Level PressureIn, Min Sea Level PressureIn, Max VisibilityMiles, Mean VisibilityMiles, Min VisibilityMiles, Max Wind SpeedMPH, Mean Wind SpeedMPH, Max Gust SpeedMPH,PrecipitationIn, CloudCover, Events, WindDirDegrees
2012-10-1,81,70,61,57,52,48,80,58,32,29.86,29.82,29.76,10,10,10,15,8,25,0.00,1,,346
2012-10-2,77,66,54,54,51,45,93,65,32,29.96,29.92,29.86,10,10,10,13,6,17,0.00,1,,336
2012-10-3,82,67,52,55,52,50,93,63,34,30.02,29.97,29.93,10,10,10,15,3,23,0.00,2,,175
2012-10-4,84,74,63,64,57,52,75,57,40,30.16,30.08,30.02,10,10,10,13,6,24,0.00,4,,170
2012-10-5,66,58,48,54,48,41,89,74,63,30.19,30.13,30.07,10,9,2,16,10,25,0.00,8,Rain,7
2012-10-6,50,48,46,41,37,32,76,66,50,30.31,30.24,30.18,10,10,10,14,10,22,0.00,7,Rain,31
2012-10-7,57,50,42,41,33,29,86,58,34,30.34,30.28,30.22,10,10,10,12,7,18,0.01,4,,12
2012-10-8,64,49,34,42,36,32,93,63,33,30.26,30.17,30.07,10,10,7,10,2,,0.00,2,,181
2012-10-9,68,58,48,57,50,40,87,71,59,30.07,29.97,29.87,10,10,10,15,7,29,0.00,5,,163
2012-10-10,71,62,55,56,50,42,90,64,36,30.24,30.15,30.04,10,10,7,13,7,21,0.00,7,,44
2012-10-11,82,71,62,67,60,53,79,69,58,30.17,30.11,30.04,10,10,9,13,5,18,0.00,7,,174
2012-10-12,78,72,66,70,67,64,100,86,74,30.19,30.13,30.07,10,10,8,13,7,21,0.00,6,Rain,154
2012-10-13,81,72,64,70,66,64,100,87,74,30.06,29.90,29.75,10,8,1,25,11,41,0.17,6,Rain-Thunderstorm,189
2012-10-14,78,65,52,66,55,49,100,75,37,30.08,29.96,29.78,10,10,10,14,8,22,0.00,1,,271
2012-10-15,82,64,46,53,47,42,100,61,25,30.10,30.02,29.94,10,10,10,10,3,17,0.01,1,,200
2012-10-16,78,69,61,57,49,45,78,52,36,29.93,29.78,29.63,10,10,10,17,8,29,0.00,1,,181
2012-10-17,82,68,54,63,58,38,88,70,39,29.83,29.58,29.48,10,10,9,17,12,32,0.00,6,,207
2012-10-18,72,58,43,42,31,21,86,46,15,29.97,29.90,29.83,10,10,10,18,5,31,0.00,2,,269
2012-10-19,72,58,42,37,30,26,79,40,19,29.96,29.90,29.86,10,10,9,18,6,25,0.00,3,,274
2012-10-20,84,62,43,61,47,32,82,53,28,29.87,29.80,29.72,10,10,10,15,4,22,0.00,2,,169
2012-10-21,86,78,71,68,66,60,78,68,55,29.86,29.81,29.75,10,10,10,20,12,29,0.00,4,,173
2012-10-22,79,75,71,70,66,64,88,75,62,29.97,29.91,29.86,10,10,5,18,11,33,0.01,5,Rain-Thunderstorm,176
2012-10-23,81,74,69,67,65,63,83,73,61,29.94,29.89,29.84,10,10,10,13,9,26,0.00,4,,173
2012-10-24,81,76,70,64,62,59,78,66,47,29.96,29.88,29.79,10,10,10,15,9,24,0.00,2,,176
2012-10-25,73,60,46,65,53,37,86,74,64,30.16,29.96,29.77,10,10,9,21,13,29,0.02,7,Rain,327
2012-10-26,52,47,41,38,33,29,76,61,43,30.36,30.28,30.15,10,10,10,21,15,30,0.00,5,,9
2012-10-27,55,44,32,34,29,25,85,62,31,30.36,30.29,30.21,10,10,10,12,7,17,0.00,1,,15
2012-10-28,59,44,28,34,28,19,92,64,22,30.32,30.27,30.23,10,10,9,9,2,17,0.00,1,,23
2012-10-29,64,47,30,34,29,22,92,60,20,30.34,30.23,30.12,10,10,9,7,1,,0.00,1,,199
2012-10-30,73,55,37,41,36,32,86,56,25,30.11,30.01,29.90,10,10,7,14,3,20,0.00,1,,205
2012-10-31,75,60,46,47,42,40,83,64,29,30.05,29.98,29.90,10,10,10,9,3,,0.00,1,,353